Tethys — FAC2321 — position and weather

sailwx.info

Track history (hours):
 
Tides and Currents Weather Stations Pressure Air Temp Water Temp Dewpoint Dewpoint Depression Visibility Wind Speed Wind Dir Waves Ship Positions

Tethys

Last reported at 2017-Dec-15 02:29 UTC. Time now 2017-Dec-16 16:48 UTC.
Position N 14°28' W 060°52'.

Length 20 m.

Type: Ship. MMSI: 227263840.

Date/timePositionNaut miles runAvg speedWind from/ knotsBaromVisibWave heightAir tempDewpointWater temp
2017-Dec-15 02:29N 14°28' W 060°52'0 0.0
2017-Dec-15 00:59N 14°28' W 060°52'0 0.0
2017-Dec-15 00:29N 14°28' W 060°52'7 0.6
2017-Dec-14 13:26N 14°25' W 060°58'3 5.7
2017-Dec-14 12:57N 14°26' W 060°56'2 2.8
2017-Dec-14 12:17N 14°26' W 060°54'0 0.0
2017-Dec-13 19:19N 14°26' W 060°54'0 0.0
2017-Dec-13 18:58N 14°26' W 060°54'1 1.8
2017-Dec-13 18:30N 14°25' W 060°54'2 3.2
2017-Dec-13 17:59N 14°24' W 060°54'1 0.6
2017-Dec-13 16:57N 14°24' W 060°53'2 3.1
2017-Dec-13 16:28N 14°23' W 060°54'  
Track history (hours):
 
Tides and Currents Weather Stations Pressure Air Temp Water Temp Dewpoint Dewpoint Depression Visibility Wind Speed Wind Dir Waves Ship Positions

Tethys

Last reported at 2017-Dec-15 02:29 UTC. Time now 2017-Dec-16 16:48 UTC.
Position N 14°28' W 060°52'.

Length 20 m.

Type: Ship. MMSI: 227263840.

Date/timePositionNaut miles runAvg speedWind from/ knotsBaromVisibWave heightAir tempDewpointWater temp
2017-Dec-15 02:29N 14°28' W 060°52'0 0.0
2017-Dec-15 00:59N 14°28' W 060°52'0 0.0
2017-Dec-15 00:29N 14°28' W 060°52'7 0.6
2017-Dec-14 13:26N 14°25' W 060°58'3 5.7
2017-Dec-14 12:57N 14°26' W 060°56'2 2.8
2017-Dec-14 12:17N 14°26' W 060°54'0 0.0
2017-Dec-13 19:19N 14°26' W 060°54'0 0.0
2017-Dec-13 18:58N 14°26' W 060°54'1 1.8
2017-Dec-13 18:30N 14°25' W 060°54'2 3.2
2017-Dec-13 17:59N 14°24' W 060°54'1 0.6
2017-Dec-13 16:57N 14°24' W 060°53'2 3.1
2017-Dec-13 16:28N 14°23' W 060°54'  

Dump ship's entire track history